Time;durP1;ratioP1;P1;durP2;ratioP2;P2;SDS_P1;SDS_P2;PMS_P1;PMS_P2;Temp;Humidity;BMP_temperature;BMP_pressure;BME280_temperature;BME280_humidity;BME280_pressure;Samples;Min_cycle;Max_cycle;Signal;HPM_P1;HPM_P2
2021/08/23 00:01:40;;;;;;;;;;;19.30;95.40;;;;;;4346994;33;42615;-75
2021/08/23 00:04:07;;;;;;;;;;;19.30;95.40;;;;;;4347068;33;43309;-75
2021/08/23 00:06:34;;;;;;;;;;;19.30;95.40;;;;;;4347106;33;43398;-75
2021/08/23 00:09:01;;;;;;;;;;;19.30;95.40;;;;;;4347559;33;43829;-75
2021/08/23 00:11:29;;;;;;;;;;;19.20;95.40;;;;;;4333999;33;43775;-75
2021/08/23 00:13:56;;;;;;;;;;;19.30;95.40;;;;;;4347263;33;42061;-74
2021/08/23 00:16:23;;;;;;;;;;;19.30;95.50;;;;;;4347848;33;20009;-75
2021/08/23 00:18:51;;;;;;;;;;;19.20;95.40;;;;;;4347287;33;43022;-74
2021/08/23 00:21:23;;;;;;;;;;;19.30;95.50;;;;;;4347046;33;43727;-75
2021/08/23 00:23:52;;;;;;;;;;;19.30;95.50;;;;;;4347300;33;42854;-75
2021/08/23 00:26:22;;;;;;;;;;;19.20;95.50;;;;;;4333842;33;44301;-75
2021/08/23 00:28:49;;;;;;;;;;;19.20;95.50;;;;;;4347030;33;43605;-75
2021/08/23 00:31:16;;;;;;;;;;;19.20;95.50;;;;;;4347062;33;43099;-75
2021/08/23 00:33:43;;;;;;;;;;;19.20;95.50;;;;;;4347242;33;43479;-75
2021/08/23 00:36:10;;;;;;;;;;;19.20;95.50;;;;;;4346774;33;42792;-75
2021/08/23 00:38:37;;;;;;;;;;;19.30;95.60;;;;;;4346719;33;43586;-75
2021/08/23 00:41:04;;;;;;;;;;;19.20;95.50;;;;;;4333465;33;43849;-75
2021/08/23 00:43:32;;;;;;;;;;;19.20;95.50;;;;;;4346815;33;42622;-74
2021/08/23 00:45:59;;;;;;;;;;;19.30;95.60;;;;;;4346575;33;43932;-74
2021/08/23 00:48:28;;;;;;;;;;;19.20;95.50;;;;;;4333323;33;42877;-75
2021/08/23 00:50:56;;;;;;;;;;;19.20;95.60;;;;;;4333692;33;43025;-75
2021/08/23 00:53:23;;;;;;;;;;;19.20;95.60;;;;;;4346500;33;42675;-74
2021/08/23 00:55:51;;;;;;;;;;;19.20;95.60;;;;;;4347091;33;43995;-75
2021/08/23 00:58:19;;;;;;;;;;;19.20;95.90;;;;;;4346561;33;42824;-76
2021/08/23 01:00:50;;;;;;;;;;;19.20;95.60;;;;;;4346850;33;43763;-75
2021/08/23 01:03:27;;;;;;;;;;;19.20;95.60;;;;;;4330639;33;43866;-75
2021/08/23 01:05:54;;;;;;;;;;;19.20;95.60;;;;;;4332017;33;43979;-75
2021/08/23 01:08:40;;;;;;;;;;;19.20;95.60;;;;;;4331522;33;42171;-75
2021/08/23 01:11:08;;;;;;;;;;;19.20;95.70;;;;;;4331533;33;43508;-75
2021/08/23 01:13:36;;;;;;;;;;;19.10;95.70;;;;;;4331411;33;43912;-74
2021/08/23 01:16:03;;;;;;;;;;;19.10;95.70;;;;;;4331461;33;43257;-75
2021/08/23 01:18:31;;;;;;;;;;;19.10;95.70;;;;;;4332030;33;43262;-74
2021/08/23 01:21:00;;;;;;;;;;;19.10;95.70;;;;;;4331362;33;42970;-74
2021/08/23 01:23:28;;;;;;;;;;;19.10;95.70;;;;;;4331431;33;42436;-75
2021/08/23 01:25:55;;;;;;;;;;;19.10;95.70;;;;;;4331273;33;43747;-75
2021/08/23 01:28:37;;;;;;;;;;;19.10;95.70;;;;;;4331830;33;43222;-75
2021/08/23 01:31:22;;;;;;;;;;;19.10;95.70;;;;;;4330752;33;42995;-75
2021/08/23 01:33:50;;;;;;;;;;;19.10;95.70;;;;;;4331157;33;44262;-75
2021/08/23 01:36:18;;;;;;;;;;;19.10;95.70;;;;;;4331590;33;43845;-75
2021/08/23 01:38:45;;;;;;;;;;;19.10;95.70;;;;;;4330069;33;42515;-76
2021/08/23 01:41:12;;;;;;;;;;;19.10;95.70;;;;;;4331511;33;44559;-75
2021/08/23 01:43:39;;;;;;;;;;;19.10;95.70;;;;;;4330948;33;43583;-75
2021/08/23 01:46:06;;;;;;;;;;;19.10;95.70;;;;;;4330204;33;42607;-75
2021/08/23 01:48:33;;;;;;;;;;;19.10;95.70;;;;;;4330408;33;43753;-75
2021/08/23 01:51:01;;;;;;;;;;;19.10;95.70;;;;;;4329917;33;43019;-75
2021/08/23 01:53:28;;;;;;;;;;;19.10;95.70;;;;;;4330344;33;42559;-75
2021/08/23 01:55:55;;;;;;;;;;;19.10;95.70;;;;;;4330954;33;43178;-75
2021/08/23 01:58:22;;;;;;;;;;;19.10;95.70;;;;;;4330931;33;43707;-75
2021/08/23 02:00:49;;;;;;;;;;;19.10;95.80;;;;;;4330777;33;42522;-75
2021/08/23 02:03:16;;;;;;;;;;;19.10;95.80;;;;;;4340946;33;43890;-75
2021/08/23 02:05:44;;;;;;;;;;;19.10;95.80;;;;;;4345899;33;43868;-74
2021/08/23 02:08:11;;;;;;;;;;;19.10;95.80;;;;;;4345794;33;42743;-75
2021/08/23 02:10:38;;;;;;;;;;;19.10;95.80;;;;;;4345279;33;45244;-75
2021/08/23 02:13:05;;;;;;;;;;;19.10;95.80;;;;;;4332311;33;43875;-75
2021/08/23 02:15:32;;;;;;;;;;;19.10;95.80;;;;;;4332460;33;43227;-75
2021/08/23 02:17:59;;;;;;;;;;;19.10;95.80;;;;;;4345364;33;43028;-74
2021/08/23 02:20:27;;;;;;;;;;;19.10;95.80;;;;;;4345719;33;43541;-75
2021/08/23 02:22:54;;;;;;;;;;;19.00;95.80;;;;;;4345648;33;43521;-75
2021/08/23 02:25:22;;;;;;;;;;;19.10;95.80;;;;;;4345130;33;43627;-75
2021/08/23 02:27:51;;;;;;;;;;;19.10;95.80;;;;;;4345173;33;43009;-75
2021/08/23 02:30:19;;;;;;;;;;;19.10;95.80;;;;;;4345500;33;43204;-75
2021/08/23 02:32:46;;;;;;;;;;;19.00;95.80;;;;;;4345543;33;43599;-74
2021/08/23 02:35:13;;;;;;;;;;;19.10;95.80;;;;;;4345500;33;43474;-75
2021/08/23 02:37:40;;;;;;;;;;;19.00;95.80;;;;;;4332027;33;44260;-75
2021/08/23 02:40:08;;;;;;;;;;;19.10;95.90;;;;;;4332608;33;43871;-75
2021/08/23 02:42:35;;;;;;;;;;;19.10;95.90;;;;;;4331790;33;44141;-75
2021/08/23 02:45:02;;;;;;;;;;;19.10;95.90;;;;;;4345194;33;43043;-75
2021/08/23 02:47:29;;;;;;;;;;;19.10;95.90;;;;;;4345432;33;43188;-75
2021/08/23 02:49:58;;;;;;;;;;;19.00;95.90;;;;;;4332310;33;44200;-75
2021/08/23 02:52:25;;;;;;;;;;;19.00;95.80;;;;;;4331896;33;43571;-75
2021/08/23 02:54:52;;;;;;;;;;;19.00;95.90;;;;;;4344613;33;42118;-75
2021/08/23 02:57:19;;;;;;;;;;;19.00;95.90;;;;;;4345168;33;42796;-74
2021/08/23 02:59:46;;;;;;;;;;;19.00;95.90;;;;;;4331637;33;43698;-74
2021/08/23 03:02:13;;;;;;;;;;;19.10;95.90;;;;;;4344695;33;43017;-75
2021/08/23 03:04:40;;;;;;;;;;;19.10;95.90;;;;;;4345270;33;43014;-75
2021/08/23 03:07:07;;;;;;;;;;;19.00;95.90;;;;;;4344966;33;43065;-75
2021/08/23 03:09:34;;;;;;;;;;;19.00;95.90;;;;;;4331546;33;42727;-75
2021/08/23 03:12:01;;;;;;;;;;;19.00;95.90;;;;;;4331472;33;42340;-74
2021/08/23 03:14:28;;;;;;;;;;;19.00;95.90;;;;;;4345296;33;43104;-75
2021/08/23 03:16:56;;;;;;;;;;;19.00;95.90;;;;;;4331472;33;42783;-75
2021/08/23 03:19:23;;;;;;;;;;;19.00;95.90;;;;;;4344646;33;43843;-75
2021/08/23 03:21:50;;;;;;;;;;;19.00;95.90;;;;;;4345158;33;43857;-75
2021/08/23 03:24:17;;;;;;;;;;;19.00;95.90;;;;;;4344845;33;44219;-75
2021/08/23 03:26:44;;;;;;;;;;;19.00;95.90;;;;;;4344667;33;42598;-75
2021/08/23 03:29:12;;;;;;;;;;;19.00;96.00;;;;;;4345093;33;42816;-74
2021/08/23 03:31:40;;;;;;;;;;;19.10;96.00;;;;;;4331743;33;42607;-75
2021/08/23 03:34:11;;;;;;;;;;;19.00;96.00;;;;;;4344683;33;43020;-75
2021/08/23 03:36:39;;;;;;;;;;;19.00;96.00;;;;;;4344886;33;41875;-74
2021/08/23 03:39:07;;;;;;;;;;;19.00;96.00;;;;;;4344820;33;42964;-75
2021/08/23 03:41:35;;;;;;;;;;;19.00;96.00;;;;;;4344563;33;43269;-75
2021/08/23 03:44:02;;;;;;;;;;;19.00;96.00;;;;;;4345012;33;43199;-74
2021/08/23 03:46:32;;;;;;;;;;;19.00;96.00;;;;;;4331575;33;42809;-75
2021/08/23 03:49:03;;;;;;;;;;;19.00;96.00;;;;;;4331363;33;43426;-74
2021/08/23 03:51:30;;;;;;;;;;;19.00;96.10;;;;;;4331883;33;43469;-75
2021/08/23 03:53:57;;;;;;;;;;;19.00;96.10;;;;;;4331606;33;43194;-75
2021/08/23 03:56:24;;;;;;;;;;;19.00;96.10;;;;;;4331632;33;44194;-75
2021/08/23 03:58:51;;;;;;;;;;;19.00;96.10;;;;;;4331142;33;43464;-76
2021/08/23 04:01:18;;;;;;;;;;;19.00;96.10;;;;;;4344916;33;43964;-74
2021/08/23 04:03:46;;;;;;;;;;;19.10;96.10;;;;;;4331284;33;43855;-75
2021/08/23 04:06:13;;;;;;;;;;;19.00;96.10;;;;;;4345059;33;43322;-74
2021/08/23 04:08:40;;;;;;;;;;;19.00;96.10;;;;;;4334112;33;42935;-74
2021/08/23 04:11:10;;;;;;;;;;;19.00;96.10;;;;;;4347442;33;42850;-75
2021/08/23 04:13:37;;;;;;;;;;;19.00;96.10;;;;;;4347476;33;43142;-75
2021/08/23 04:16:04;;;;;;;;;;;19.00;96.10;;;;;;4347154;33;42732;-75
2021/08/23 04:18:32;;;;;;;;;;;19.00;96.10;;;;;;4347152;33;43264;-75
2021/08/23 04:20:59;;;;;;;;;;;19.00;96.10;;;;;;4334236;33;43317;-75
2021/08/23 04:23:26;;;;;;;;;;;19.00;96.10;;;;;;4347432;33;43752;-74
2021/08/23 04:25:53;;;;;;;;;;;19.00;96.20;;;;;;4347143;33;43921;-75
2021/08/23 04:28:20;;;;;;;;;;;19.00;96.20;;;;;;4346841;33;43189;-75
2021/08/23 04:30:47;;;;;;;;;;;19.00;96.20;;;;;;4346826;33;42579;-74
2021/08/23 04:33:16;;;;;;;;;;;19.00;96.20;;;;;;4346819;33;42720;-75
2021/08/23 04:35:43;;;;;;;;;;;19.00;96.20;;;;;;4346760;33;43663;-74
2021/08/23 04:38:10;;;;;;;;;;;19.00;96.20;;;;;;4347192;33;44261;-75
2021/08/23 04:40:37;;;;;;;;;;;19.00;96.20;;;;;;4333862;33;42913;-75
2021/08/23 04:43:04;;;;;;;;;;;19.00;96.20;;;;;;4346764;33;45471;-75
2021/08/23 04:45:31;;;;;;;;;;;19.00;96.20;;;;;;4347084;33;43730;-75
2021/08/23 04:47:58;;;;;;;;;;;19.00;96.20;;;;;;4346565;33;42478;-75
2021/08/23 04:50:25;;;;;;;;;;;19.00;96.20;;;;;;4346883;33;43192;-75
2021/08/23 04:52:53;;;;;;;;;;;19.00;96.30;;;;;;4347003;33;42989;-75
2021/08/23 04:55:20;;;;;;;;;;;18.90;96.20;;;;;;4346495;33;43275;-75
2021/08/23 04:57:47;;;;;;;;;;;18.90;96.20;;;;;;4333367;33;43898;-75
2021/08/23 05:00:14;;;;;;;;;;;19.00;96.30;;;;;;4333153;33;43667;-74
2021/08/23 05:02:41;;;;;;;;;;;19.00;96.30;;;;;;4346459;33;42776;-75
2021/08/23 05:05:08;;;;;;;;;;;19.00;96.30;;;;;;4346681;33;42526;-75
2021/08/23 05:07:35;;;;;;;;;;;18.90;96.30;;;;;;4346851;33;43871;-75
2021/08/23 05:10:03;;;;;;;;;;;18.90;96.30;;;;;;4346218;33;43476;-75
2021/08/23 05:12:30;;;;;;;;;;;18.90;96.30;;;;;;4346363;33;44071;-74
2021/08/23 05:14:57;;;;;;;;;;;19.00;96.40;;;;;;4346429;33;43612;-75
2021/08/23 05:17:25;;;;;;;;;;;18.90;96.30;;;;;;4346358;33;44708;-74
2021/08/23 05:19:52;;;;;;;;;;;18.90;96.40;;;;;;4345831;33;42811;-75
2021/08/23 05:22:19;;;;;;;;;;;19.00;96.40;;;;;;4346542;33;43489;-75
2021/08/23 05:24:46;;;;;;;;;;;19.00;96.40;;;;;;4345841;33;43623;-75
2021/08/23 05:27:13;;;;;;;;;;;18.90;96.40;;;;;;4346271;33;43714;-75
2021/08/23 05:29:40;;;;;;;;;;;19.00;96.40;;;;;;4346132;33;42608;-76
2021/08/23 05:32:07;;;;;;;;;;;18.90;96.40;;;;;;4346215;33;42779;-74
2021/08/23 05:34:34;;;;;;;;;;;18.90;96.40;;;;;;4345935;33;42019;-74
2021/08/23 05:37:01;;;;;;;;;;;18.90;96.40;;;;;;4333094;33;45884;-75
2021/08/23 05:39:28;;;;;;;;;;;18.90;96.50;;;;;;4345871;33;43885;-74
2021/08/23 05:41:55;;;;;;;;;;;19.00;96.50;;;;;;4346290;33;43208;-74
2021/08/23 05:44:22;;;;;;;;;;;18.90;96.50;;;;;;4345991;33;43862;-75
2021/08/23 05:46:50;;;;;;;;;;;18.90;96.50;;;;;;4346339;33;43592;-75
2021/08/23 05:49:17;;;;;;;;;;;18.90;96.50;;;;;;4345699;33;42729;-75
2021/08/23 05:51:44;;;;;;;;;;;18.90;96.50;;;;;;4346171;33;43320;-75
2021/08/23 05:54:11;;;;;;;;;;;18.90;96.50;;;;;;4345831;33;42480;-74
2021/08/23 05:56:40;;;;;;;;;;;18.90;96.50;;;;;;4332498;33;42669;-75
2021/08/23 05:59:08;;;;;;;;;;;19.00;96.60;;;;;;4345755;33;44225;-75
2021/08/23 06:01:35;;;;;;;;;;;18.90;96.50;;;;;;4345839;33;43890;-75
2021/08/23 06:04:02;;;;;;;;;;;19.00;96.60;;;;;;4315591;33;42820;-75
2021/08/23 06:06:29;;;;;;;;;;;19.00;96.60;;;;;;4315502;33;43266;-75
2021/08/23 06:08:56;;;;;;;;;;;18.90;96.60;;;;;;4316716;33;43946;-75
2021/08/23 06:11:23;;;;;;;;;;;18.90;96.60;;;;;;4316817;33;44323;-75
2021/08/23 06:13:50;;;;;;;;;;;19.00;96.60;;;;;;4315031;33;43032;-75
2021/08/23 06:16:18;;;;;;;;;;;18.90;96.60;;;;;;4315066;33;42601;-75
2021/08/23 06:18:45;;;;;;;;;;;19.00;96.60;;;;;;4316432;33;44893;-75
2021/08/23 06:21:12;;;;;;;;;;;19.00;96.70;;;;;;4314864;33;42649;-75
2021/08/23 06:23:40;;;;;;;;;;;18.90;96.60;;;;;;4315279;33;44970;-75
2021/08/23 06:26:07;;;;;;;;;;;18.90;96.60;;;;;;4316335;33;46080;-75
2021/08/23 06:28:34;;;;;;;;;;;18.90;96.60;;;;;;4315301;33;45981;-75
2021/08/23 06:31:01;;;;;;;;;;;19.00;96.60;;;;;;4315796;33;43278;-74
2021/08/23 06:33:28;;;;;;;;;;;18.90;96.60;;;;;;4315147;33;43691;-75
2021/08/23 06:35:55;;;;;;;;;;;19.00;96.60;;;;;;4314645;33;42866;-75
2021/08/23 06:38:22;;;;;;;;;;;18.90;96.60;;;;;;4316339;33;44930;-75
2021/08/23 06:40:49;;;;;;;;;;;19.00;96.60;;;;;;4314906;33;43484;-75
2021/08/23 06:43:18;;;;;;;;;;;18.90;96.60;;;;;;4314672;33;42844;-75
2021/08/23 06:45:46;;;;;;;;;;;18.90;96.60;;;;;;4314582;33;42387;-75
2021/08/23 06:48:13;;;;;;;;;;;18.90;96.60;;;;;;4316106;33;43041;-75
2021/08/23 06:50:41;;;;;;;;;;;19.00;96.60;;;;;;4316029;33;43714;-74
2021/08/23 06:53:08;;;;;;;;;;;19.00;96.60;;;;;;4316066;33;43932;-75
2021/08/23 06:55:35;;;;;;;;;;;19.00;96.60;;;;;;4316106;33;43805;-74
2021/08/23 06:58:02;;;;;;;;;;;19.00;96.60;;;;;;4315581;33;44111;-75
2021/08/23 07:00:30;;;;;;;;;;;18.90;96.60;;;;;;4316027;33;44181;-75
2021/08/23 07:02:57;;;;;;;;;;;19.00;96.60;;;;;;4322725;33;42873;-75
2021/08/23 07:05:25;;;;;;;;;;;19.00;96.60;;;;;;4330287;33;44497;-75
2021/08/23 07:07:52;;;;;;;;;;;19.00;96.60;;;;;;4329186;33;42758;-75
2021/08/23 07:10:20;;;;;;;;;;;19.00;96.60;;;;;;4330557;33;43919;-75
2021/08/23 07:12:47;;;;;;;;;;;19.00;96.60;;;;;;4329441;33;43975;-74
2021/08/23 07:15:14;;;;;;;;;;;19.00;96.60;;;;;;4328973;33;44376;-75
2021/08/23 07:17:41;;;;;;;;;;;19.00;96.60;;;;;;4330004;33;43749;-75
2021/08/23 07:20:08;;;;;;;;;;;19.00;96.60;;;;;;4329980;33;43127;-75
2021/08/23 07:22:35;;;;;;;;;;;19.00;96.60;;;;;;4330138;33;43865;-75
2021/08/23 07:25:02;;;;;;;;;;;19.00;96.60;;;;;;4329186;33;43051;-74
2021/08/23 07:27:32;;;;;;;;;;;19.00;96.60;;;;;;4329909;33;44180;-75
2021/08/23 07:30:01;;;;;;;;;;;19.00;96.60;;;;;;4330618;33;43201;-76
2021/08/23 07:32:28;;;;;;;;;;;19.00;96.50;;;;;;4330023;33;42323;-74
2021/08/23 07:34:55;;;;;;;;;;;19.00;96.60;;;;;;4329919;33;43636;-75
2021/08/23 07:37:22;;;;;;;;;;;19.00;96.60;;;;;;4330119;33;43656;-74
2021/08/23 07:39:49;;;;;;;;;;;19.00;96.50;;;;;;4328781;33;44136;-75
2021/08/23 07:42:16;;;;;;;;;;;19.00;96.50;;;;;;4330979;33;44041;-75
2021/08/23 07:44:44;;;;;;;;;;;19.00;96.50;;;;;;4333143;33;43758;-75
2021/08/23 07:47:11;;;;;;;;;;;19.00;96.50;;;;;;4332712;33;43344;-75
2021/08/23 07:49:38;;;;;;;;;;;19.00;96.50;;;;;;4331642;33;43414;-75
2021/08/23 07:52:05;;;;;;;;;;;19.00;96.50;;;;;;4332942;33;43385;-75
2021/08/23 07:54:35;;;;;;;;;;;19.00;96.50;;;;;;4331569;33;43008;-74
2021/08/23 07:57:03;;;;;;;;;;;19.00;96.50;;;;;;4333040;33;43259;-75
2021/08/23 07:59:30;;;;;;;;;;;19.00;96.50;;;;;;4332970;33;43633;-75
2021/08/23 08:01:57;;;;;;;;;;;19.00;96.50;;;;;;4334676;33;45008;-75
2021/08/23 08:04:30;;;;;;;;;;;19.00;96.50;;;;;;4334045;33;44215;-75
2021/08/23 08:07:02;;;;;;;;;;;19.00;96.50;;;;;;4334452;33;44282;-74
2021/08/23 08:09:29;;;;;;;;;;;19.00;96.50;;;;;;4347175;33;43003;-74
2021/08/23 08:12:01;;;;;;;;;;;19.00;96.50;;;;;;4347556;33;43221;-75
2021/08/23 08:14:37;;;;;;;;;;;19.00;96.50;;;;;;4334172;33;42709;-74
2021/08/23 08:17:04;;;;;;;;;;;19.00;96.50;;;;;;4347259;33;43891;-75
2021/08/23 08:19:31;;;;;;;;;;;19.00;96.50;;;;;;4347141;33;42896;-74
2021/08/23 08:22:05;;;;;;;;;;;19.10;96.50;;;;;;4346998;33;42095;-75
2021/08/23 08:24:38;;;;;;;;;;;19.00;96.40;;;;;;4346950;33;43709;-75
2021/08/23 08:27:13;;;;;;;;;;;19.00;96.40;;;;;;4334156;33;43245;-75
2021/08/23 08:29:48;;;;;;;;;;;19.00;96.40;;;;;;4334328;33;44205;-75
2021/08/23 08:32:21;;;;;;;;;;;19.00;96.40;;;;;;4347374;33;43385;-75
2021/08/23 08:34:53;;;;;;;;;;;19.00;96.40;;;;;;4347205;33;46119;-76
2021/08/23 08:37:20;;;;;;;;;;;19.00;96.40;;;;;;4334157;33;43698;-74
2021/08/23 08:39:55;;;;;;;;;;;19.00;96.40;;;;;;4346911;33;42608;-75
2021/08/23 08:42:25;;;;;;;;;;;19.00;96.40;;;;;;4333570;33;43758;-75
2021/08/23 08:44:52;;;;;;;;;;;19.10;96.40;;;;;;4333625;33;43182;-75
2021/08/23 08:47:22;;;;;;;;;;;19.10;96.40;;;;;;4333663;33;44417;-74
2021/08/23 08:49:53;;;;;;;;;;;19.10;96.40;;;;;;4334254;33;20030;-74
2021/08/23 08:52:26;;;;;;;;;;;19.10;96.40;;;;;;4346276;33;43971;-75
2021/08/23 08:54:59;;;;;;;;;;;19.00;96.30;;;;;;4333569;33;43756;-75
2021/08/23 08:57:29;;;;;;;;;;;19.10;96.30;;;;;;4333691;33;45593;-75
2021/08/23 08:59:57;;;;;;;;;;;19.10;96.30;;;;;;4346811;33;43916;-75
2021/08/23 09:02:26;;;;;;;;;;;19.10;96.30;;;;;;4346364;33;43881;-74
2021/08/23 09:04:54;;;;;;;;;;;19.10;96.30;;;;;;4346404;33;42759;-75
2021/08/23 09:07:34;;;;;;;;;;;19.10;96.30;;;;;;4333216;33;42028;-75
2021/08/23 09:10:13;;;;;;;;;;;19.10;96.30;;;;;;4346400;33;43716;-75
2021/08/23 09:12:40;;;;;;;;;;;19.10;96.30;;;;;;4346886;33;44251;-75
2021/08/23 09:15:07;;;;;;;;;;;19.10;96.20;;;;;;4346643;33;44234;-75
2021/08/23 09:17:37;;;;;;;;;;;19.10;96.20;;;;;;4332882;33;44197;-75
2021/08/23 09:20:10;;;;;;;;;;;19.10;96.20;;;;;;4334528;33;19993;-74
2021/08/23 09:22:38;;;;;;;;;;;19.10;96.20;;;;;;4333189;33;42804;-75
2021/08/23 09:25:08;;;;;;;;;;;19.10;96.20;;;;;;4346064;33;43768;-75
2021/08/23 09:27:44;;;;;;;;;;;19.10;96.20;;;;;;4332694;33;44261;-75
2021/08/23 09:30:11;;;;;;;;;;;19.10;96.20;;;;;;4333440;33;44071;-75
2021/08/23 09:32:51;;;;;;;;;;;19.10;96.20;;;;;;4346069;33;42912;-75
2021/08/23 09:35:28;;;;;;;;;;;19.10;96.20;;;;;;4333272;33;43910;-74
2021/08/23 09:37:59;;;;;;;;;;;19.10;96.20;;;;;;4333152;33;43805;-75
2021/08/23 09:40:33;;;;;;;;;;;19.10;96.20;;;;;;4346392;33;44712;-75
2021/08/23 09:43:13;;;;;;;;;;;19.10;96.20;;;;;;4332915;33;44143;-75
2021/08/23 09:45:47;;;;;;;;;;;19.10;96.20;;;;;;4332508;33;43581;-75
2021/08/23 09:48:14;;;;;;;;;;;19.10;96.30;;;;;;4332902;33;44009;-75
2021/08/23 09:50:41;;;;;;;;;;;19.10;96.20;;;;;;4333445;33;20006;-75
2021/08/23 09:53:12;;;;;;;;;;;19.10;96.20;;;;;;4345865;33;44223;-75
2021/08/23 09:55:44;;;;;;;;;;;19.10;96.20;;;;;;4345664;33;43540;-75
2021/08/23 09:58:11;;;;;;;;;;;19.10;96.20;;;;;;4346276;33;43853;-75
2021/08/23 10:00:39;;;;;;;;;;;19.10;96.20;;;;;;4345667;33;42203;-75
2021/08/23 10:03:14;;;;;;;;;;;19.20;96.20;;;;;;4345440;33;43051;-74
2021/08/23 10:05:49;;;;;;;;;;;19.20;96.20;;;;;;4345318;33;42898;-74
2021/08/23 10:08:17;;;;;;;;;;;19.10;96.20;;;;;;4332618;33;45735;-74
2021/08/23 10:10:45;;;;;;;;;;;19.20;96.20;;;;;;4345409;33;44212;-75
2021/08/23 10:13:13;;;;;;;;;;;19.20;96.20;;;;;;4332056;33;42858;-75
2021/08/23 10:15:41;;;;;;;;;;;19.10;96.20;;;;;;4345762;33;45904;-75
2021/08/23 10:18:08;;;;;;;;;;;19.20;96.20;;;;;;4332064;33;43364;-75
2021/08/23 10:20:41;;;;;;;;;;;19.20;96.20;;;;;;4345902;33;45842;-75
2021/08/23 10:23:09;;;;;;;;;;;19.20;96.20;;;;;;4332565;33;44129;-75
2021/08/23 10:25:38;;;;;;;;;;;19.20;96.20;;;;;;4345758;33;43909;-75
2021/08/23 10:28:07;;;;;;;;;;;19.20;96.20;;;;;;4345132;33;44554;-75
2021/08/23 10:30:37;;;;;;;;;;;19.20;96.20;;;;;;4345189;33;43926;-74
2021/08/23 10:33:15;;;;;;;;;;;19.20;96.20;;;;;;4333019;33;43418;-75
2021/08/23 10:35:50;;;;;;;;;;;19.20;96.20;;;;;;4332126;33;43711;-74
2021/08/23 10:38:22;;;;;;;;;;;19.20;96.20;;;;;;4331787;33;43841;-75
2021/08/23 10:41:07;;;;;;;;;;;19.20;96.20;;;;;;4345207;33;44190;-75
2021/08/23 10:43:48;;;;;;;;;;;19.30;96.20;;;;;;4332133;33;43184;-75
2021/08/23 10:46:27;;;;;;;;;;;19.20;96.20;;;;;;4345600;33;43190;-75
2021/08/23 10:49:00;;;;;;;;;;;19.20;96.20;;;;;;4344821;33;43023;-75
2021/08/23 10:51:27;;;;;;;;;;;19.20;96.20;;;;;;4345140;33;44114;-75
2021/08/23 10:53:54;;;;;;;;;;;19.20;96.10;;;;;;4345198;33;42887;-75
2021/08/23 10:56:22;;;;;;;;;;;19.30;96.20;;;;;;4331655;33;41805;-75
2021/08/23 10:58:52;;;;;;;;;;;19.30;96.20;;;;;;4345267;33;44258;-75
2021/08/23 11:01:23;;;;;;;;;;;19.30;96.10;;;;;;4344910;33;42842;-75
2021/08/23 11:04:04;;;;;;;;;;;19.30;96.20;;;;;;4344857;33;43102;-75
2021/08/23 11:06:37;;;;;;;;;;;19.20;96.10;;;;;;4332251;33;42913;-75
2021/08/23 11:09:11;;;;;;;;;;;19.20;96.10;;;;;;4331938;33;43719;-75
2021/08/23 11:11:41;;;;;;;;;;;19.20;96.10;;;;;;4344757;33;44283;-75
2021/08/23 11:14:16;;;;;;;;;;;19.20;96.10;;;;;;4344801;33;43580;-75
2021/08/23 11:16:49;;;;;;;;;;;19.30;96.10;;;;;;4345947;33;43953;-75
2021/08/23 11:19:18;;;;;;;;;;;19.20;96.10;;;;;;4348382;33;43819;-75
2021/08/23 11:22:05;;;;;;;;;;;19.30;96.10;;;;;;4348192;33;43631;-74
2021/08/23 11:24:33;;;;;;;;;;;19.30;96.10;;;;;;4335083;33;43227;-75
2021/08/23 11:27:09;;;;;;;;;;;19.30;96.10;;;;;;4347849;33;43216;-74
2021/08/23 11:29:46;;;;;;;;;;;19.30;96.10;;;;;;4348164;33;43510;-75
2021/08/23 11:32:13;;;;;;;;;;;19.30;96.10;;;;;;4348241;33;43408;-74
2021/08/23 11:34:46;;;;;;;;;;;19.30;96.10;;;;;;4347572;33;43324;-75
2021/08/23 11:37:22;;;;;;;;;;;19.30;96.10;;;;;;4347871;33;43598;-75
2021/08/23 11:40:10;;;;;;;;;;;19.30;96.10;;;;;;4334738;33;44594;-75
2021/08/23 11:42:40;;;;;;;;;;;19.30;96.10;;;;;;4347975;33;43020;-75
2021/08/23 11:45:25;;;;;;;;;;;19.30;96.10;;;;;;4336337;33;43329;-75
2021/08/23 11:47:52;;;;;;;;;;;19.30;96.10;;;;;;4334552;33;43701;-75
2021/08/23 11:50:23;;;;;;;;;;;19.30;96.10;;;;;;4348201;33;43471;-75
2021/08/23 11:52:56;;;;;;;;;;;19.30;96.10;;;;;;4334439;33;43854;-74
2021/08/23 11:55:23;;;;;;;;;;;19.30;96.00;;;;;;4348238;33;19993;-74
2021/08/23 11:58:19;;;;;;;;;;;19.30;96.00;;;;;;4347702;33;45510;-75
2021/08/23 12:01:06;;;;;;;;;;;19.40;96.10;;;;;;4334652;33;43301;-74
2021/08/23 12:03:37;;;;;;;;;;;19.40;96.10;;;;;;4334136;33;45986;-75
2021/08/23 12:06:06;;;;;;;;;;;19.40;96.00;;;;;;4347265;33;42534;-74
2021/08/23 12:08:45;;;;;;;;;;;19.40;96.00;;;;;;4347608;33;45068;-75
2021/08/23 12:11:22;;;;;;;;;;;19.30;96.00;;;;;;4334502;33;43272;-75
2021/08/23 12:13:55;;;;;;;;;;;19.40;96.00;;;;;;4333829;33;42879;-74
2021/08/23 12:16:33;;;;;;;;;;;19.30;95.90;;;;;;4347629;33;43580;-74
2021/08/23 12:19:12;;;;;;;;;;;19.40;96.00;;;;;;4346997;33;44314;-75
2021/08/23 12:21:43;;;;;;;;;;;19.40;96.00;;;;;;4347407;33;43089;-75
2021/08/23 12:24:22;;;;;;;;;;;19.40;95.90;;;;;;4347381;33;43299;-75
2021/08/23 12:26:53;;;;;;;;;;;19.40;95.90;;;;;;4334170;33;42916;-75
2021/08/23 12:29:28;;;;;;;;;;;19.40;95.90;;;;;;4333542;33;44662;-75
2021/08/23 12:32:17;;;;;;;;;;;19.40;95.90;;;;;;4333992;33;45955;-75
2021/08/23 12:34:50;;;;;;;;;;;19.40;95.90;;;;;;4334069;33;43478;-74
2021/08/23 12:37:29;;;;;;;;;;;19.40;95.90;;;;;;4334080;33;44287;-75
2021/08/23 12:40:02;;;;;;;;;;;19.40;95.90;;;;;;4334027;33;44719;-75
2021/08/23 12:42:34;;;;;;;;;;;19.40;95.90;;;;;;4347230;33;44262;-75
2021/08/23 12:45:09;;;;;;;;;;;19.40;95.90;;;;;;4347249;33;45976;-75
2021/08/23 12:47:42;;;;;;;;;;;19.40;95.90;;;;;;4333509;33;42833;-75
2021/08/23 12:50:09;;;;;;;;;;;19.50;96.00;;;;;;4333997;33;43661;-75
2021/08/23 12:52:45;;;;;;;;;;;19.50;96.00;;;;;;4333456;33;43027;-75
2021/08/23 12:55:12;;;;;;;;;;;19.50;95.90;;;;;;4346999;33;44227;-75
2021/08/23 12:57:44;;;;;;;;;;;19.40;95.90;;;;;;4346563;33;43890;-75
2021/08/23 13:00:17;;;;;;;;;;;19.50;95.90;;;;;;4346925;33;44996;-75
2021/08/23 13:02:52;;;;;;;;;;;19.50;95.90;;;;;;4333330;33;44123;-75
2021/08/23 13:05:25;;;;;;;;;;;19.50;95.90;;;;;;4333339;33;43048;-74
2021/08/23 13:07:52;;;;;;;;;;;19.50;95.90;;;;;;4333002;33;45817;-75
2021/08/23 13:10:24;;;;;;;;;;;19.50;95.90;;;;;;4346862;33;42972;-75
2021/08/23 13:12:54;;;;;;;;;;;19.50;95.90;;;;;;4333373;33;42953;-75
2021/08/23 13:15:29;;;;;;;;;;;19.50;95.90;;;;;;4346792;33;44004;-75
2021/08/23 13:17:59;;;;;;;;;;;19.50;95.90;;;;;;4333204;33;42736;-75
2021/08/23 13:20:29;;;;;;;;;;;19.50;95.90;;;;;;4346496;33;44069;-75
2021/08/23 13:23:01;;;;;;;;;;;19.50;95.90;;;;;;4346102;33;44510;-75
2021/08/23 13:25:37;;;;;;;;;;;19.50;95.90;;;;;;4346598;33;43211;-75
2021/08/23 13:28:10;;;;;;;;;;;19.60;95.90;;;;;;4347008;33;20065;-75
2021/08/23 13:30:45;;;;;;;;;;;19.50;95.90;;;;;;4332791;33;42518;-75
2021/08/23 13:33:18;;;;;;;;;;;19.60;95.90;;;;;;4346343;33;42549;-75
2021/08/23 13:35:54;;;;;;;;;;;19.60;95.90;;;;;;4333217;33;43560;-75
2021/08/23 13:38:30;;;;;;;;;;;19.60;95.90;;;;;;4332698;33;43845;-75
2021/08/23 13:41:02;;;;;;;;;;;19.60;95.90;;;;;;4346365;33;43199;-75
2021/08/23 13:43:35;;;;;;;;;;;19.60;95.80;;;;;;4346413;33;45316;-75
2021/08/23 13:46:04;;;;;;;;;;;19.60;95.90;;;;;;4333232;33;43463;-76
2021/08/23 13:48:40;;;;;;;;;;;19.60;95.80;;;;;;4346216;33;44178;-75
2021/08/23 13:51:12;;;;;;;;;;;19.60;95.80;;;;;;4332896;33;45765;-75
2021/08/23 13:53:45;;;;;;;;;;;19.60;95.80;;;;;;4345736;33;42894;-75
2021/08/23 13:56:20;;;;;;;;;;;19.60;95.90;;;;;;4346129;33;44781;-75
2021/08/23 13:58:48;;;;;;;;;;;19.60;95.80;;;;;;4346912;33;20398;-75
2021/08/23 14:01:24;;;;;;;;;;;19.60;95.80;;;;;;4345493;33;44674;-75
2021/08/23 14:04:00;;;;;;;;;;;19.60;95.80;;;;;;4345614;33;44018;-75
2021/08/23 14:06:39;;;;;;;;;;;19.70;95.80;;;;;;4332675;33;43875;-75
2021/08/23 14:09:06;;;;;;;;;;;19.70;95.80;;;;;;4345902;33;44744;-75
2021/08/23 14:11:39;;;;;;;;;;;19.70;95.80;;;;;;4345794;33;44327;-75
2021/08/23 14:14:06;;;;;;;;;;;19.70;95.70;;;;;;4332607;33;44629;-75
2021/08/23 14:16:36;;;;;;;;;;;19.70;95.70;;;;;;4332294;33;42712;-75
2021/08/23 14:19:09;;;;;;;;;;;19.70;95.70;;;;;;4332555;33;43193;-75
2021/08/23 14:21:40;;;;;;;;;;;19.70;95.70;;;;;;4332481;33;42739;-75
2021/08/23 14:24:17;;;;;;;;;;;19.70;95.70;;;;;;4345472;33;43656;-75
2021/08/23 14:26:47;;;;;;;;;;;19.70;95.70;;;;;;4332210;33;42900;-75
2021/08/23 14:29:23;;;;;;;;;;;19.70;95.70;;;;;;4333263;33;20035;-76
2021/08/23 14:31:55;;;;;;;;;;;19.70;95.70;;;;;;4332505;33;44192;-75